sensor_id;sensor_type;location;lat;lon;timestamp;temperature;humidity
55313;DHT22;46892;45.668;11.756;2024-02-28T00:00:38;10.70;91.50
55313;DHT22;46892;45.668;11.756;2024-02-28T00:03:04;10.70;91.80
55313;DHT22;46892;45.668;11.756;2024-02-28T00:05:30;10.80;91.60
55313;DHT22;46892;45.668;11.756;2024-02-28T00:07:56;10.80;91.70
55313;DHT22;46892;45.668;11.756;2024-02-28T00:10:22;10.80;91.50
55313;DHT22;46892;45.668;11.756;2024-02-28T00:12:48;10.80;91.50
55313;DHT22;46892;45.668;11.756;2024-02-28T00:15:14;10.80;91.10
55313;DHT22;46892;45.668;11.756;2024-02-28T00:17:41;10.90;91.10
55313;DHT22;46892;45.668;11.756;2024-02-28T00:20:08;10.90;91.00
55313;DHT22;46892;45.668;11.756;2024-02-28T00:22:36;10.90;90.70
55313;DHT22;46892;45.668;11.756;2024-02-28T00:25:02;10.80;90.90
55313;DHT22;46892;45.668;11.756;2024-02-28T00:27:28;10.80;91.10
55313;DHT22;46892;45.668;11.756;2024-02-28T00:29:54;10.80;91.30
55313;DHT22;46892;45.668;11.756;2024-02-28T00:32:21;10.70;91.60
55313;DHT22;46892;45.668;11.756;2024-02-28T00:34:47;10.80;91.50
55313;DHT22;46892;45.668;11.756;2024-02-28T00:37:12;10.80;91.40
55313;DHT22;46892;45.668;11.756;2024-02-28T00:39:38;10.80;91.10
55313;DHT22;46892;45.668;11.756;2024-02-28T00:42:04;10.90;91.10
55313;DHT22;46892;45.668;11.756;2024-02-28T00:44:30;10.80;91.30
55313;DHT22;46892;45.668;11.756;2024-02-28T00:46:55;10.80;91.20
55313;DHT22;46892;45.668;11.756;2024-02-28T00:49:22;10.80;91.00
55313;DHT22;46892;45.668;11.756;2024-02-28T00:51:47;10.80;91.30
55313;DHT22;46892;45.668;11.756;2024-02-28T00:54:13;10.80;91.30
55313;DHT22;46892;45.668;11.756;2024-02-28T00:56:39;10.80;91.40
55313;DHT22;46892;45.668;11.756;2024-02-28T00:59:05;10.80;91.40
55313;DHT22;46892;45.668;11.756;2024-02-28T01:01:32;10.80;91.50
55313;DHT22;46892;45.668;11.756;2024-02-28T01:03:57;10.80;91.30
55313;DHT22;46892;45.668;11.756;2024-02-28T01:06:23;10.80;91.10
55313;DHT22;46892;45.668;11.756;2024-02-28T01:08:49;10.80;91.30
55313;DHT22;46892;45.668;11.756;2024-02-28T01:11:15;10.80;91.30
55313;DHT22;46892;45.668;11.756;2024-02-28T01:13:41;10.80;91.30
55313;DHT22;46892;45.668;11.756;2024-02-28T01:16:06;10.70;91.40
55313;DHT22;46892;45.668;11.756;2024-02-28T01:18:32;10.80;91.30
55313;DHT22;46892;45.668;11.756;2024-02-28T01:20:58;10.80;91.20
55313;DHT22;46892;45.668;11.756;2024-02-28T01:23:24;10.80;91.20
55313;DHT22;46892;45.668;11.756;2024-02-28T01:25:50;10.70;91.20
55313;DHT22;46892;45.668;11.756;2024-02-28T01:28:15;10.80;91.10
55313;DHT22;46892;45.668;11.756;2024-02-28T01:30:41;10.80;91.00
55313;DHT22;46892;45.668;11.756;2024-02-28T01:33:07;10.80;90.70
55313;DHT22;46892;45.668;11.756;2024-02-28T01:35:32;10.80;90.60
55313;DHT22;46892;45.668;11.756;2024-02-28T01:37:58;10.90;90.50
55313;DHT22;46892;45.668;11.756;2024-02-28T01:40:24;10.90;90.30
55313;DHT22;46892;45.668;11.756;2024-02-28T01:42:49;10.80;90.40
55313;DHT22;46892;45.668;11.756;2024-02-28T01:45:16;10.90;90.50
55313;DHT22;46892;45.668;11.756;2024-02-28T01:47:42;10.90;90.40
55313;DHT22;46892;45.668;11.756;2024-02-28T01:50:09;10.90;90.40
55313;DHT22;46892;45.668;11.756;2024-02-28T01:52:37;10.90;90.30
55313;DHT22;46892;45.668;11.756;2024-02-28T01:55:04;10.90;90.20
55313;DHT22;46892;45.668;11.756;2024-02-28T01:57:32;10.90;90.20
55313;DHT22;46892;45.668;11.756;2024-02-28T01:59:58;11.00;89.90
55313;DHT22;46892;45.668;11.756;2024-02-28T02:02:24;11.10;89.60
55313;DHT22;46892;45.668;11.756;2024-02-28T02:04:50;11.10;89.40
55313;DHT22;46892;45.668;11.756;2024-02-28T02:07:19;11.10;89.40
55313;DHT22;46892;45.668;11.756;2024-02-28T02:09:45;11.20;88.90
55313;DHT22;46892;45.668;11.756;2024-02-28T02:12:12;11.30;88.60
55313;DHT22;46892;45.668;11.756;2024-02-28T02:14:38;11.30;88.30
55313;DHT22;46892;45.668;11.756;2024-02-28T02:17:04;11.30;88.20
55313;DHT22;46892;45.668;11.756;2024-02-28T02:19:29;11.40;87.90
55313;DHT22;46892;45.668;11.756;2024-02-28T02:21:58;11.30;88.00
55313;DHT22;46892;45.668;11.756;2024-02-28T02:24:24;11.40;87.70
55313;DHT22;46892;45.668;11.756;2024-02-28T02:26:58;11.40;87.90
55313;DHT22;46892;45.668;11.756;2024-02-28T02:29:23;11.40;87.70
55313;DHT22;46892;45.668;11.756;2024-02-28T02:31:49;11.50;87.60
55313;DHT22;46892;45.668;11.756;2024-02-28T02:34:15;11.40;87.80
55313;DHT22;46892;45.668;11.756;2024-02-28T02:36:41;11.40;88.10
55313;DHT22;46892;45.668;11.756;2024-02-28T02:39:06;11.30;88.50
55313;DHT22;46892;45.668;11.756;2024-02-28T02:41:34;11.20;88.80
55313;DHT22;46892;45.668;11.756;2024-02-28T02:43:59;11.20;88.80
55313;DHT22;46892;45.668;11.756;2024-02-28T02:46:25;11.10;89.00
55313;DHT22;46892;45.668;11.756;2024-02-28T02:48:51;11.10;89.10
55313;DHT22;46892;45.668;11.756;2024-02-28T02:51:19;11.20;89.10
55313;DHT22;46892;45.668;11.756;2024-02-28T02:53:45;11.20;89.20
55313;DHT22;46892;45.668;11.756;2024-02-28T02:56:11;11.20;88.70
55313;DHT22;46892;45.668;11.756;2024-02-28T02:58:36;11.20;88.70
55313;DHT22;46892;45.668;11.756;2024-02-28T03:01:02;11.30;88.80
55313;DHT22;46892;45.668;11.756;2024-02-28T03:03:28;11.30;88.30
55313;DHT22;46892;45.668;11.756;2024-02-28T03:05:54;11.30;88.70
55313;DHT22;46892;45.668;11.756;2024-02-28T03:08:19;11.20;89.10
55313;DHT22;46892;45.668;11.756;2024-02-28T03:10:45;11.10;89.40
55313;DHT22;46892;45.668;11.756;2024-02-28T03:13:11;11.10;89.80
55313;DHT22;46892;45.668;11.756;2024-02-28T03:15:37;11.00;89.90
55313;DHT22;46892;45.668;11.756;2024-02-28T03:18:03;11.00;90.10
55313;DHT22;46892;45.668;11.756;2024-02-28T03:20:28;11.00;89.90
55313;DHT22;46892;45.668;11.756;2024-02-28T03:22:54;11.00;90.10
55313;DHT22;46892;45.668;11.756;2024-02-28T03:25:20;11.00;90.00
55313;DHT22;46892;45.668;11.756;2024-02-28T03:27:46;11.00;89.90
55313;DHT22;46892;45.668;11.756;2024-02-28T03:30:12;11.00;89.60
55313;DHT22;46892;45.668;11.756;2024-02-28T03:32:37;11.00;89.60
55313;DHT22;46892;45.668;11.756;2024-02-28T03:35:03;11.00;89.70
55313;DHT22;46892;45.668;11.756;2024-02-28T03:37:31;11.00;89.80
55313;DHT22;46892;45.668;11.756;2024-02-28T03:39:56;11.10;89.40
55313;DHT22;46892;45.668;11.756;2024-02-28T03:42:22;11.10;89.40
55313;DHT22;46892;45.668;11.756;2024-02-28T03:44:48;11.10;89.30
55313;DHT22;46892;45.668;11.756;2024-02-28T03:47:14;11.20;89.20
55313;DHT22;46892;45.668;11.756;2024-02-28T03:49:40;11.20;89.10
55313;DHT22;46892;45.668;11.756;2024-02-28T03:52:05;11.10;89.30
55313;DHT22;46892;45.668;11.756;2024-02-28T03:54:31;11.10;89.20
55313;DHT22;46892;45.668;11.756;2024-02-28T03:56:57;11.10;89.30
55313;DHT22;46892;45.668;11.756;2024-02-28T03:59:24;11.10;88.70
55313;DHT22;46892;45.668;11.756;2024-02-28T04:01:50;11.00;88.10
55313;DHT22;46892;45.668;11.756;2024-02-28T04:04:15;10.90;88.00
55313;DHT22;46892;45.668;11.756;2024-02-28T04:06:41;10.80;88.20
55313;DHT22;46892;45.668;11.756;2024-02-28T04:09:07;10.70;88.60
55313;DHT22;46892;45.668;11.756;2024-02-28T04:11:34;10.50;89.20
55313;DHT22;46892;45.668;11.756;2024-02-28T04:13:59;10.50;89.50
55313;DHT22;46892;45.668;11.756;2024-02-28T04:16:25;10.40;89.50
55313;DHT22;46892;45.668;11.756;2024-02-28T04:18:51;10.30;90.20
55313;DHT22;46892;45.668;11.756;2024-02-28T04:21:16;10.40;90.00
55313;DHT22;46892;45.668;11.756;2024-02-28T04:23:42;10.30;90.60
55313;DHT22;46892;45.668;11.756;2024-02-28T04:26:09;10.30;90.60
55313;DHT22;46892;45.668;11.756;2024-02-28T04:28:35;10.30;90.90
55313;DHT22;46892;45.668;11.756;2024-02-28T04:31:01;10.30;91.10
55313;DHT22;46892;45.668;11.756;2024-02-28T04:33:26;10.30;91.10
55313;DHT22;46892;45.668;11.756;2024-02-28T04:35:52;10.20;91.00
55313;DHT22;46892;45.668;11.756;2024-02-28T04:38:18;10.10;91.10
55313;DHT22;46892;45.668;11.756;2024-02-28T04:40:43;10.20;91.10
55313;DHT22;46892;45.668;11.756;2024-02-28T04:43:09;10.20;91.10
55313;DHT22;46892;45.668;11.756;2024-02-28T04:45:35;10.20;91.20
55313;DHT22;46892;45.668;11.756;2024-02-28T04:48:01;10.10;91.30
55313;DHT22;46892;45.668;11.756;2024-02-28T04:50:27;10.10;91.30
55313;DHT22;46892;45.668;11.756;2024-02-28T04:52:52;10.10;91.20
55313;DHT22;46892;45.668;11.756;2024-02-28T04:55:18;10.10;91.00
55313;DHT22;46892;45.668;11.756;2024-02-28T04:57:44;10.20;91.10
55313;DHT22;46892;45.668;11.756;2024-02-28T05:00:10;10.10;91.40
55313;DHT22;46892;45.668;11.756;2024-02-28T05:02:36;10.20;91.80
55313;DHT22;46892;45.668;11.756;2024-02-28T05:05:01;10.20;91.70
55313;DHT22;46892;45.668;11.756;2024-02-28T05:07:28;10.20;91.50
55313;DHT22;46892;45.668;11.756;2024-02-28T05:09:53;10.10;91.40
55313;DHT22;46892;45.668;11.756;2024-02-28T05:12:19;10.00;91.30
55313;DHT22;46892;45.668;11.756;2024-02-28T05:14:45;10.00;91.70
55313;DHT22;46892;45.668;11.756;2024-02-28T05:17:11;9.90;91.60
55313;DHT22;46892;45.668;11.756;2024-02-28T05:19:36;10.00;91.60
55313;DHT22;46892;45.668;11.756;2024-02-28T05:22:02;10.10;90.90
55313;DHT22;46892;45.668;11.756;2024-02-28T05:24:28;10.00;90.80
55313;DHT22;46892;45.668;11.756;2024-02-28T05:26:54;10.00;90.80
55313;DHT22;46892;45.668;11.756;2024-02-28T05:29:20;10.00;90.80
55313;DHT22;46892;45.668;11.756;2024-02-28T05:31:45;10.10;90.80
55313;DHT22;46892;45.668;11.756;2024-02-28T05:34:11;10.10;91.00
55313;DHT22;46892;45.668;11.756;2024-02-28T05:36:37;10.20;91.40
55313;DHT22;46892;45.668;11.756;2024-02-28T05:39:03;10.20;91.40
55313;DHT22;46892;45.668;11.756;2024-02-28T05:41:33;10.30;91.50
55313;DHT22;46892;45.668;11.756;2024-02-28T05:43:59;10.20;91.60
55313;DHT22;46892;45.668;11.756;2024-02-28T05:46:25;10.30;91.20
55313;DHT22;46892;45.668;11.756;2024-02-28T05:48:51;10.30;91.00
55313;DHT22;46892;45.668;11.756;2024-02-28T05:51:16;10.30;91.10
55313;DHT22;46892;45.668;11.756;2024-02-28T05:53:42;10.20;91.30
55313;DHT22;46892;45.668;11.756;2024-02-28T05:56:09;10.10;90.90
55313;DHT22;46892;45.668;11.756;2024-02-28T05:58:46;10.10;90.70
55313;DHT22;46892;45.668;11.756;2024-02-28T06:01:14;10.10;90.90
55313;DHT22;46892;45.668;11.756;2024-02-28T06:03:40;10.10;90.90
55313;DHT22;46892;45.668;11.756;2024-02-28T06:06:06;10.00;91.30
55313;DHT22;46892;45.668;11.756;2024-02-28T06:08:37;9.90;91.20
55313;DHT22;46892;45.668;11.756;2024-02-28T06:11:03;9.90;91.20
55313;DHT22;46892;45.668;11.756;2024-02-28T06:13:29;9.80;90.90
55313;DHT22;46892;45.668;11.756;2024-02-28T06:15:55;9.90;90.40
55313;DHT22;46892;45.668;11.756;2024-02-28T06:18:21;9.80;90.10
55313;DHT22;46892;45.668;11.756;2024-02-28T06:20:55;9.80;90.10
55313;DHT22;46892;45.668;11.756;2024-02-28T06:23:24;9.90;89.70
55313;DHT22;46892;45.668;11.756;2024-02-28T06:25:50;9.90;89.70
55313;DHT22;46892;45.668;11.756;2024-02-28T06:28:16;9.90;90.10
55313;DHT22;46892;45.668;11.756;2024-02-28T06:30:43;9.90;90.00
55313;DHT22;46892;45.668;11.756;2024-02-28T06:33:12;10.00;90.10
55313;DHT22;46892;45.668;11.756;2024-02-28T06:35:37;10.00;90.30
55313;DHT22;46892;45.668;11.756;2024-02-28T06:38:03;9.90;90.50
55313;DHT22;46892;45.668;11.756;2024-02-28T06:40:29;9.90;90.70
55313;DHT22;46892;45.668;11.756;2024-02-28T06:42:55;10.00;90.90
55313;DHT22;46892;45.668;11.756;2024-02-28T06:45:21;10.00;91.00
55313;DHT22;46892;45.668;11.756;2024-02-28T06:47:47;10.00;91.00
55313;DHT22;46892;45.668;11.756;2024-02-28T06:50:13;10.10;91.10
55313;DHT22;46892;45.668;11.756;2024-02-28T06:52:40;10.10;91.20
55313;DHT22;46892;45.668;11.756;2024-02-28T06:55:08;10.20;91.40
55313;DHT22;46892;45.668;11.756;2024-02-28T06:57:42;10.20;91.40
55313;DHT22;46892;45.668;11.756;2024-02-28T07:00:10;10.30;91.50
55313;DHT22;46892;45.668;11.756;2024-02-28T07:02:40;10.30;91.50
55313;DHT22;46892;45.668;11.756;2024-02-28T07:05:06;10.30;91.60
55313;DHT22;46892;45.668;11.756;2024-02-28T07:07:32;10.30;91.60
55313;DHT22;46892;45.668;11.756;2024-02-28T07:09:58;10.30;91.50
55313;DHT22;46892;45.668;11.756;2024-02-28T07:12:24;10.30;91.00
55313;DHT22;46892;45.668;11.756;2024-02-28T07:14:50;10.30;91.10
55313;DHT22;46892;45.668;11.756;2024-02-28T07:17:16;10.30;91.30
55313;DHT22;46892;45.668;11.756;2024-02-28T07:19:42;10.30;91.20
55313;DHT22;46892;45.668;11.756;2024-02-28T07:22:08;10.30;91.20
55313;DHT22;46892;45.668;11.756;2024-02-28T07:24:33;10.30;91.30
55313;DHT22;46892;45.668;11.756;2024-02-28T07:26:59;10.30;91.10
55313;DHT22;46892;45.668;11.756;2024-02-28T07:29:25;10.40;91.00
55313;DHT22;46892;45.668;11.756;2024-02-28T07:31:51;10.30;91.20
55313;DHT22;46892;45.668;11.756;2024-02-28T07:34:17;10.30;91.20
55313;DHT22;46892;45.668;11.756;2024-02-28T07:36:42;10.30;91.30
55313;DHT22;46892;45.668;11.756;2024-02-28T07:39:08;10.30;91.40
55313;DHT22;46892;45.668;11.756;2024-02-28T07:41:38;10.30;91.40
55313;DHT22;46892;45.668;11.756;2024-02-28T07:44:05;10.30;91.30
55313;DHT22;46892;45.668;11.756;2024-02-28T07:46:30;10.30;91.20
55313;DHT22;46892;45.668;11.756;2024-02-28T07:48:56;10.30;91.20
55313;DHT22;46892;45.668;11.756;2024-02-28T07:51:22;10.30;91.10
55313;DHT22;46892;45.668;11.756;2024-02-28T07:53:48;10.30;91.10
55313;DHT22;46892;45.668;11.756;2024-02-28T07:56:20;10.30;91.10
55313;DHT22;46892;45.668;11.756;2024-02-28T07:58:46;10.30;91.30
55313;DHT22;46892;45.668;11.756;2024-02-28T08:01:12;10.30;91.30
55313;DHT22;46892;45.668;11.756;2024-02-28T08:03:38;10.40;91.10
55313;DHT22;46892;45.668;11.756;2024-02-28T08:06:04;10.30;91.10
55313;DHT22;46892;45.668;11.756;2024-02-28T08:08:30;10.30;91.10
55313;DHT22;46892;45.668;11.756;2024-02-28T08:10:56;10.30;91.00
55313;DHT22;46892;45.668;11.756;2024-02-28T08:13:22;10.30;90.90
55313;DHT22;46892;45.668;11.756;2024-02-28T08:15:48;10.30;90.70
55313;DHT22;46892;45.668;11.756;2024-02-28T08:18:13;10.30;90.40
55313;DHT22;46892;45.668;11.756;2024-02-28T08:20:39;10.30;90.20
55313;DHT22;46892;45.668;11.756;2024-02-28T08:23:07;10.30;89.90
55313;DHT22;46892;45.668;11.756;2024-02-28T08:25:36;10.40;89.70
55313;DHT22;46892;45.668;11.756;2024-02-28T08:28:03;10.40;89.50
55313;DHT22;46892;45.668;11.756;2024-02-28T08:30:29;10.40;89.40
55313;DHT22;46892;45.668;11.756;2024-02-28T08:32:56;10.40;89.60
55313;DHT22;46892;45.668;11.756;2024-02-28T08:35:24;10.40;89.60
55313;DHT22;46892;45.668;11.756;2024-02-28T08:37:53;10.50;90.00
55313;DHT22;46892;45.668;11.756;2024-02-28T08:40:19;10.50;90.20
55313;DHT22;46892;45.668;11.756;2024-02-28T08:42:45;10.50;90.10
55313;DHT22;46892;45.668;11.756;2024-02-28T08:45:12;10.50;90.20
55313;DHT22;46892;45.668;11.756;2024-02-28T08:47:38;10.50;90.50
55313;DHT22;46892;45.668;11.756;2024-02-28T08:50:04;10.50;90.30
55313;DHT22;46892;45.668;11.756;2024-02-28T08:52:30;10.60;90.30
55313;DHT22;46892;45.668;11.756;2024-02-28T08:54:56;10.50;90.30
55313;DHT22;46892;45.668;11.756;2024-02-28T08:57:21;10.50;90.60
55313;DHT22;46892;45.668;11.756;2024-02-28T08:59:50;10.50;90.60
55313;DHT22;46892;45.668;11.756;2024-02-28T09:02:27;10.50;90.30
55313;DHT22;46892;45.668;11.756;2024-02-28T09:05:05;10.50;90.50
55313;DHT22;46892;45.668;11.756;2024-02-28T09:07:31;10.50;90.80
55313;DHT22;46892;45.668;11.756;2024-02-28T09:09:56;10.50;90.70
55313;DHT22;46892;45.668;11.756;2024-02-28T09:12:22;10.50;90.60
55313;DHT22;46892;45.668;11.756;2024-02-28T09:14:48;10.60;90.50
55313;DHT22;46892;45.668;11.756;2024-02-28T09:17:20;10.60;89.90
55313;DHT22;46892;45.668;11.756;2024-02-28T09:19:45;10.70;89.10
55313;DHT22;46892;45.668;11.756;2024-02-28T09:22:11;10.70;88.70
55313;DHT22;46892;45.668;11.756;2024-02-28T09:24:37;10.80;87.70
55313;DHT22;46892;45.668;11.756;2024-02-28T09:27:03;10.80;87.30
55313;DHT22;46892;45.668;11.756;2024-02-28T09:29:29;10.80;87.20
55313;DHT22;46892;45.668;11.756;2024-02-28T09:31:55;10.90;87.40
55313;DHT22;46892;45.668;11.756;2024-02-28T09:34:20;10.90;87.00
55313;DHT22;46892;45.668;11.756;2024-02-28T09:36:46;11.00;87.00
55313;DHT22;46892;45.668;11.756;2024-02-28T09:39:12;11.00;87.00
55313;DHT22;46892;45.668;11.756;2024-02-28T09:41:38;10.90;87.20
55313;DHT22;46892;45.668;11.756;2024-02-28T09:44:06;11.00;87.40
55313;DHT22;46892;45.668;11.756;2024-02-28T09:46:33;11.00;87.60
55313;DHT22;46892;45.668;11.756;2024-02-28T09:49:05;11.00;87.70
55313;DHT22;46892;45.668;11.756;2024-02-28T09:51:34;11.00;87.90
55313;DHT22;46892;45.668;11.756;2024-02-28T09:54:04;11.00;88.20
55313;DHT22;46892;45.668;11.756;2024-02-28T09:56:31;11.00;88.80
55313;DHT22;46892;45.668;11.756;2024-02-28T09:58:57;11.00;89.40
55313;DHT22;46892;45.668;11.756;2024-02-28T10:01:26;10.90;89.70
55313;DHT22;46892;45.668;11.756;2024-02-28T10:03:53;10.90;90.00
55313;DHT22;46892;45.668;11.756;2024-02-28T10:06:20;10.90;90.20
55313;DHT22;46892;45.668;11.756;2024-02-28T10:08:46;10.90;90.30
55313;DHT22;46892;45.668;11.756;2024-02-28T10:11:22;10.90;90.40
55313;DHT22;46892;45.668;11.756;2024-02-28T10:13:49;10.90;90.30
55313;DHT22;46892;45.668;11.756;2024-02-28T10:16:15;11.00;90.40
55313;DHT22;46892;45.668;11.756;2024-02-28T10:18:44;11.00;90.40
55313;DHT22;46892;45.668;11.756;2024-02-28T10:21:11;11.00;90.50
55313;DHT22;46892;45.668;11.756;2024-02-28T10:23:46;11.00;90.60
55313;DHT22;46892;45.668;11.756;2024-02-28T10:26:12;10.90;90.60
55313;DHT22;46892;45.668;11.756;2024-02-28T10:28:39;11.00;90.40
55313;DHT22;46892;45.668;11.756;2024-02-28T10:31:09;11.00;90.40
55313;DHT22;46892;45.668;11.756;2024-02-28T10:33:36;11.00;90.10
55313;DHT22;46892;45.668;11.756;2024-02-28T10:36:05;11.00;89.80
55313;DHT22;46892;45.668;11.756;2024-02-28T10:38:32;11.00;89.70
55313;DHT22;46892;45.668;11.756;2024-02-28T10:41:04;11.00;89.60
55313;DHT22;46892;45.668;11.756;2024-02-28T10:43:30;11.00;89.40
55313;DHT22;46892;45.668;11.756;2024-02-28T10:45:57;11.10;89.20
55313;DHT22;46892;45.668;11.756;2024-02-28T10:48:24;11.20;89.20
55313;DHT22;46892;45.668;11.756;2024-02-28T10:50:51;11.20;88.80
55313;DHT22;46892;45.668;11.756;2024-02-28T10:53:22;11.10;88.90
55313;DHT22;46892;45.668;11.756;2024-02-28T10:55:51;11.10;89.00
55313;DHT22;46892;45.668;11.756;2024-02-28T10:58:22;11.00;89.10
55313;DHT22;46892;45.668;11.756;2024-02-28T11:00:50;11.10;88.80
55313;DHT22;46892;45.668;11.756;2024-02-28T11:03:17;11.20;89.30
55313;DHT22;46892;45.668;11.756;2024-02-28T11:05:44;11.20;89.20
55313;DHT22;46892;45.668;11.756;2024-02-28T11:08:23;11.30;89.10
55313;DHT22;46892;45.668;11.756;2024-02-28T11:11:02;11.20;89.10
55313;DHT22;46892;45.668;11.756;2024-02-28T11:13:30;11.20;89.50
55313;DHT22;46892;45.668;11.756;2024-02-28T11:16:11;11.20;89.30
55313;DHT22;46892;45.668;11.756;2024-02-28T11:18:48;11.20;89.60
55313;DHT22;46892;45.668;11.756;2024-02-28T11:21:17;11.30;89.00
55313;DHT22;46892;45.668;11.756;2024-02-28T11:23:46;11.30;89.20
55313;DHT22;46892;45.668;11.756;2024-02-28T11:26:15;11.30;88.80
55313;DHT22;46892;45.668;11.756;2024-02-28T11:28:41;11.40;88.80
55313;DHT22;46892;45.668;11.756;2024-02-28T11:31:07;11.30;88.70
55313;DHT22;46892;45.668;11.756;2024-02-28T11:33:33;11.30;89.00
55313;DHT22;46892;45.668;11.756;2024-02-28T11:35:59;11.30;89.10
55313;DHT22;46892;45.668;11.756;2024-02-28T11:38:28;11.30;89.20
55313;DHT22;46892;45.668;11.756;2024-02-28T11:40:54;11.30;89.50
55313;DHT22;46892;45.668;11.756;2024-02-28T11:43:23;11.20;89.90
55313;DHT22;46892;45.668;11.756;2024-02-28T11:45:49;11.20;90.30
55313;DHT22;46892;45.668;11.756;2024-02-28T11:48:15;11.20;90.50
55313;DHT22;46892;45.668;11.756;2024-02-28T11:50:41;11.20;90.60
55313;DHT22;46892;45.668;11.756;2024-02-28T11:53:08;11.10;90.60
55313;DHT22;46892;45.668;11.756;2024-02-28T11:55:34;11.10;90.70
55313;DHT22;46892;45.668;11.756;2024-02-28T11:58:00;11.00;90.90
55313;DHT22;46892;45.668;11.756;2024-02-28T12:00:26;11.00;91.00
55313;DHT22;46892;45.668;11.756;2024-02-28T12:02:52;10.90;91.30
55313;DHT22;46892;45.668;11.756;2024-02-28T12:05:22;10.80;91.30
55313;DHT22;46892;45.668;11.756;2024-02-28T12:07:48;10.90;91.30
55313;DHT22;46892;45.668;11.756;2024-02-28T12:10:13;10.90;90.90
55313;DHT22;46892;45.668;11.756;2024-02-28T12:12:40;10.90;90.40
55313;DHT22;46892;45.668;11.756;2024-02-28T12:15:06;10.90;90.20
55313;DHT22;46892;45.668;11.756;2024-02-28T12:17:32;10.90;89.90
55313;DHT22;46892;45.668;11.756;2024-02-28T12:20:01;11.00;89.80
55313;DHT22;46892;45.668;11.756;2024-02-28T12:22:27;11.00;90.20
55313;DHT22;46892;45.668;11.756;2024-02-28T12:24:53;11.10;89.10
55313;DHT22;46892;45.668;11.756;2024-02-28T12:27:19;11.20;89.20
55313;DHT22;46892;45.668;11.756;2024-02-28T12:29:45;11.20;89.40
55313;DHT22;46892;45.668;11.756;2024-02-28T12:32:11;11.20;88.90
55313;DHT22;46892;45.668;11.756;2024-02-28T12:34:37;11.30;88.80
55313;DHT22;46892;45.668;11.756;2024-02-28T12:37:03;11.30;88.10
55313;DHT22;46892;45.668;11.756;2024-02-28T12:39:30;11.40;88.30
55313;DHT22;46892;45.668;11.756;2024-02-28T12:41:57;11.30;88.10
55313;DHT22;46892;45.668;11.756;2024-02-28T12:44:23;11.30;87.40
55313;DHT22;46892;45.668;11.756;2024-02-28T12:46:48;11.40;87.70
55313;DHT22;46892;45.668;11.756;2024-02-28T12:49:14;11.40;87.80
55313;DHT22;46892;45.668;11.756;2024-02-28T12:51:41;11.40;88.60
55313;DHT22;46892;45.668;11.756;2024-02-28T12:54:08;11.40;88.40
55313;DHT22;46892;45.668;11.756;2024-02-28T12:56:38;11.50;88.50
55313;DHT22;46892;45.668;11.756;2024-02-28T12:59:05;11.50;88.20
55313;DHT22;46892;45.668;11.756;2024-02-28T13:01:32;11.50;87.60
55313;DHT22;46892;45.668;11.756;2024-02-28T13:03:58;11.60;87.70
55313;DHT22;46892;45.668;11.756;2024-02-28T13:06:24;11.60;88.10
55313;DHT22;46892;45.668;11.756;2024-02-28T13:08:50;11.70;87.50
55313;DHT22;46892;45.668;11.756;2024-02-28T13:11:22;11.80;86.80
55313;DHT22;46892;45.668;11.756;2024-02-28T13:13:48;11.90;86.70
55313;DHT22;46892;45.668;11.756;2024-02-28T13:16:15;11.90;87.10
55313;DHT22;46892;45.668;11.756;2024-02-28T13:18:41;11.80;87.10
55313;DHT22;46892;45.668;11.756;2024-02-28T13:21:08;12.00;86.90
55313;DHT22;46892;45.668;11.756;2024-02-28T13:23:34;12.10;86.90
55313;DHT22;46892;45.668;11.756;2024-02-28T13:26:01;12.10;87.40
55313;DHT22;46892;45.668;11.756;2024-02-28T13:28:27;12.20;86.80
55313;DHT22;46892;45.668;11.756;2024-02-28T13:30:58;12.30;86.20
55313;DHT22;46892;45.668;11.756;2024-02-28T13:33:24;12.30;85.20
55313;DHT22;46892;45.668;11.756;2024-02-28T13:35:50;12.30;84.00
55313;DHT22;46892;45.668;11.756;2024-02-28T13:38:18;12.30;84.80
55313;DHT22;46892;45.668;11.756;2024-02-28T13:40:43;12.30;84.80
55313;DHT22;46892;45.668;11.756;2024-02-28T13:43:11;12.30;85.10
55313;DHT22;46892;45.668;11.756;2024-02-28T13:45:38;12.30;85.40
55313;DHT22;46892;45.668;11.756;2024-02-28T13:48:18;12.30;84.90
55313;DHT22;46892;45.668;11.756;2024-02-28T13:50:46;12.30;85.20
55313;DHT22;46892;45.668;11.756;2024-02-28T13:53:12;12.30;85.40
55313;DHT22;46892;45.668;11.756;2024-02-28T13:55:38;12.30;84.80
55313;DHT22;46892;45.668;11.756;2024-02-28T13:58:05;12.20;85.70
55313;DHT22;46892;45.668;11.756;2024-02-28T14:00:32;12.20;85.60
55313;DHT22;46892;45.668;11.756;2024-02-28T14:02:58;12.20;85.50
55313;DHT22;46892;45.668;11.756;2024-02-28T14:05:23;12.20;84.80
55313;DHT22;46892;45.668;11.756;2024-02-28T14:07:49;12.20;85.20
55313;DHT22;46892;45.668;11.756;2024-02-28T14:10:15;12.20;84.90
55313;DHT22;46892;45.668;11.756;2024-02-28T14:12:41;12.20;84.80
55313;DHT22;46892;45.668;11.756;2024-02-28T14:15:07;12.30;84.50
55313;DHT22;46892;45.668;11.756;2024-02-28T14:17:34;12.30;84.40
55313;DHT22;46892;45.668;11.756;2024-02-28T14:20:00;12.30;84.50
55313;DHT22;46892;45.668;11.756;2024-02-28T14:22:26;12.30;84.40
55313;DHT22;46892;45.668;11.756;2024-02-28T14:24:51;12.30;84.80
55313;DHT22;46892;45.668;11.756;2024-02-28T14:27:17;12.30;84.30
55313;DHT22;46892;45.668;11.756;2024-02-28T14:29:45;12.30;84.20
55313;DHT22;46892;45.668;11.756;2024-02-28T14:32:11;12.30;84.70
55313;DHT22;46892;45.668;11.756;2024-02-28T14:34:40;12.40;84.50
55313;DHT22;46892;45.668;11.756;2024-02-28T14:37:06;12.40;83.80
55313;DHT22;46892;45.668;11.756;2024-02-28T14:39:33;12.60;84.00
55313;DHT22;46892;45.668;11.756;2024-02-28T14:41:59;12.60;83.90
55313;DHT22;46892;45.668;11.756;2024-02-28T14:44:25;12.70;83.50
55313;DHT22;46892;45.668;11.756;2024-02-28T14:46:50;12.70;83.40
55313;DHT22;46892;45.668;11.756;2024-02-28T14:49:17;12.70;83.70
55313;DHT22;46892;45.668;11.756;2024-02-28T14:51:43;12.70;83.10
55313;DHT22;46892;45.668;11.756;2024-02-28T14:54:14;12.70;83.50
55313;DHT22;46892;45.668;11.756;2024-02-28T14:56:40;12.60;82.90
55313;DHT22;46892;45.668;11.756;2024-02-28T14:59:06;12.60;83.40
55313;DHT22;46892;45.668;11.756;2024-02-28T15:01:33;12.60;83.20
55313;DHT22;46892;45.668;11.756;2024-02-28T15:03:59;12.60;82.90
55313;DHT22;46892;45.668;11.756;2024-02-28T15:06:24;12.50;82.80
55313;DHT22;46892;45.668;11.756;2024-02-28T15:08:50;12.50;82.50
55313;DHT22;46892;45.668;11.756;2024-02-28T15:11:16;12.50;82.80
55313;DHT22;46892;45.668;11.756;2024-02-28T15:13:42;12.60;83.10